createdAt,value
2022-07-27T00:00:00.944Z,1006.56
2022-07-27T00:01:00.935Z,1006.58
2022-07-27T00:02:00.934Z,1006.58
2022-07-27T00:03:00.907Z,1006.62
2022-07-27T00:04:00.900Z,1006.65
2022-07-27T00:05:00.886Z,1006.59
2022-07-27T00:06:00.873Z,1006.58
2022-07-27T00:07:00.859Z,1006.61
2022-07-27T00:08:00.846Z,1006.58
2022-07-27T00:09:00.889Z,1006.6
2022-07-27T00:10:00.830Z,1006.56
2022-07-27T00:11:00.822Z,1006.64
2022-07-27T00:12:00.812Z,1006.57
2022-07-27T00:13:00.793Z,1006.56
2022-07-27T00:14:00.789Z,1006.55
2022-07-27T00:15:00.770Z,1006.59
2022-07-27T00:16:00.764Z,1006.6
2022-07-27T00:17:00.751Z,1006.61
2022-07-27T00:18:00.742Z,1006.57
2022-07-27T00:19:00.737Z,1006.54
2022-07-27T00:20:00.744Z,1006.57
2022-07-27T00:21:00.706Z,1006.51
2022-07-27T00:22:00.712Z,1006.55
2022-07-27T00:23:00.686Z,1006.52
2022-07-27T00:24:00.681Z,1006.53
2022-07-27T00:25:00.684Z,1006.5
2022-07-27T00:26:00.661Z,1006.53
2022-07-27T00:27:00.641Z,1006.56
2022-07-27T00:28:00.647Z,1006.55
2022-07-27T00:29:00.620Z,1006.57
2022-07-27T00:30:00.623Z,1006.57
2022-07-27T00:31:00.609Z,1006.53
2022-07-27T00:32:00.588Z,1006.56
2022-07-27T00:33:00.578Z,1006.54
2022-07-27T00:34:00.568Z,1006.51
2022-07-27T00:35:00.553Z,1006.51
2022-07-27T00:36:00.551Z,1006.49
2022-07-27T00:37:00.547Z,1006.5
2022-07-27T00:38:00.529Z,1006.49
2022-07-27T00:39:00.527Z,1006.52
2022-07-27T00:40:00.504Z,1006.51
2022-07-27T00:41:00.493Z,1006.47
2022-07-27T00:42:00.481Z,1006.51
2022-07-27T00:43:00.484Z,1006.56
2022-07-27T00:44:00.456Z,1006.52
2022-07-27T00:45:00.450Z,1006.52
2022-07-27T00:46:00.434Z,1006.52
2022-07-27T00:47:00.424Z,1006.51
2022-07-27T00:48:00.442Z,1006.52
2022-07-27T00:49:00.402Z,1006.53
2022-07-27T00:50:00.401Z,1006.56
2022-07-27T00:51:00.382Z,1006.55
2022-07-27T00:52:00.395Z,1006.53
2022-07-27T00:53:00.355Z,1006.55
2022-07-27T00:54:00.355Z,1006.54
2022-07-27T00:55:00.336Z,1006.58
2022-07-27T00:56:00.338Z,1006.55
2022-07-27T00:57:00.318Z,1006.54
2022-07-27T00:58:00.313Z,1006.59
2022-07-27T00:59:00.300Z,1006.61
2022-07-27T01:00:00.306Z,1006.54
2022-07-27T01:01:00.268Z,1006.5
2022-07-27T01:02:00.266Z,1006.53
2022-07-27T01:03:07.806Z,1006.58
2022-07-27T01:04:08.821Z,1006.59
2022-07-27T01:05:07.800Z,1006.44
2022-07-27T01:06:07.776Z,1006.47
2022-07-27T01:07:07.779Z,1006.5
2022-07-27T01:08:07.748Z,1006.49
2022-07-27T01:09:07.739Z,1006.52
2022-07-27T01:10:08.759Z,1006.41
2022-07-27T01:11:07.717Z,1006.46
2022-07-27T01:12:07.715Z,1006.45
2022-07-27T01:13:00.140Z,1006.46
2022-07-27T01:14:07.707Z,1006.44
2022-07-27T01:15:07.678Z,1006.45
2022-07-27T01:16:00.109Z,1006.48
2022-07-27T01:17:00.101Z,1006.47
2022-07-27T01:18:07.647Z,1006.55
2022-07-27T01:19:00.080Z,1006.48
2022-07-27T01:20:00.072Z,1006.46
2022-07-27T01:21:00.064Z,1006.48
2022-07-27T01:22:00.047Z,1006.46
2022-07-27T01:23:07.601Z,1006.47
2022-07-27T01:24:00.024Z,1006.47
2022-07-27T01:25:00.015Z,1006.52
2022-07-27T01:26:08.836Z,1006.54
2022-07-27T01:26:59.992Z,1006.49
2022-07-27T01:28:07.552Z,1006.46
2022-07-27T01:28:59.978Z,1006.48
2022-07-27T01:29:59.959Z,1006.52
2022-07-27T01:30:59.946Z,1006.48
2022-07-27T01:31:59.938Z,1006.5
2022-07-27T01:33:07.495Z,1006.47
2022-07-27T01:34:07.468Z,1006.46
2022-07-27T01:35:07.470Z,1006.47
2022-07-27T01:36:07.444Z,1006.47
2022-07-27T01:37:07.436Z,1006.42
2022-07-27T01:38:07.431Z,1006.46
2022-07-27T01:39:08.463Z,1006.47
2022-07-27T01:39:59.855Z,1006.43
2022-07-27T01:40:59.843Z,1006.42
2022-07-27T01:41:59.831Z,1006.47
2022-07-27T01:42:59.821Z,1006.47
2022-07-27T01:43:59.827Z,1006.43
2022-07-27T01:44:59.810Z,1006.46
2022-07-27T01:45:59.799Z,1006.44
2022-07-27T01:46:59.776Z,1006.46
2022-07-27T01:47:59.773Z,1006.52
2022-07-27T01:48:59.771Z,1006.48
2022-07-27T01:49:59.752Z,1006.51
2022-07-27T01:50:59.730Z,1006.51
2022-07-27T01:51:59.732Z,1006.48
2022-07-27T01:53:06.312Z,1006.54
2022-07-27T01:53:59.700Z,1006.51
2022-07-27T01:54:59.691Z,1006.56
2022-07-27T01:55:59.680Z,1006.52
2022-07-27T01:56:59.673Z,1006.52
2022-07-27T01:57:59.670Z,1006.52
2022-07-27T01:58:59.671Z,1006.49
2022-07-27T01:59:59.635Z,1006.52
2022-07-27T02:00:59.626Z,1006.51
2022-07-27T02:01:59.618Z,1006.53
2022-07-27T02:02:59.607Z,1006.56
2022-07-27T02:03:59.606Z,1006.58
2022-07-27T02:04:59.591Z,1006.62
2022-07-27T02:05:59.582Z,1006.56
2022-07-27T02:06:59.565Z,1006.59
2022-07-27T02:07:59.548Z,1006.54
2022-07-27T02:08:59.548Z,1006.61
2022-07-27T02:09:59.553Z,1006.58
2022-07-27T02:10:59.516Z,1006.6
2022-07-27T02:11:59.507Z,1006.57
2022-07-27T02:12:59.513Z,1006.5
2022-07-27T02:13:59.485Z,1006.55
2022-07-27T02:14:59.477Z,1006.54
2022-07-27T02:15:59.475Z,1006.54
2022-07-27T02:16:59.472Z,1006.52
2022-07-27T02:17:59.443Z,1006.49
2022-07-27T02:18:59.438Z,1006.56
2022-07-27T02:19:59.420Z,1006.53
2022-07-27T02:20:59.411Z,1006.54
2022-07-27T02:21:59.401Z,1006.51
2022-07-27T02:22:59.391Z,1006.47
2022-07-27T02:23:59.378Z,1006.52
2022-07-27T02:24:59.363Z,1006.53
2022-07-27T02:25:59.352Z,1006.59
2022-07-27T02:26:59.349Z,1006.54
2022-07-27T02:27:59.346Z,1006.51
2022-07-27T02:28:59.324Z,1006.55
2022-07-27T02:29:59.320Z,1006.58
2022-07-27T02:30:59.308Z,1006.56
2022-07-27T02:31:59.290Z,1006.57
2022-07-27T02:32:59.284Z,1006.59
2022-07-27T02:33:59.267Z,1006.58
2022-07-27T02:34:59.256Z,1006.58
2022-07-27T02:35:59.248Z,1006.57
2022-07-27T02:36:59.232Z,1006.58
2022-07-27T02:37:59.224Z,1006.54
2022-07-27T02:38:59.215Z,1006.57
2022-07-27T02:39:59.202Z,1006.63
2022-07-27T02:40:59.191Z,1006.69
2022-07-27T02:41:59.178Z,1006.65
2022-07-27T02:42:59.172Z,1006.63
2022-07-27T02:43:59.165Z,1006.68
2022-07-27T02:44:59.155Z,1006.61
2022-07-27T02:45:59.140Z,1006.63
2022-07-27T02:46:59.131Z,1006.68
2022-07-27T02:47:59.148Z,1006.63
2022-07-27T02:48:59.104Z,1006.62
2022-07-27T02:49:59.095Z,1006.58
2022-07-27T02:50:59.081Z,1006.6
2022-07-27T02:51:59.072Z,1006.58
2022-07-27T02:52:59.062Z,1006.59
2022-07-27T02:53:59.049Z,1006.6
2022-07-27T02:54:59.034Z,1006.65
2022-07-27T02:55:59.027Z,1006.61
2022-07-27T02:56:59.019Z,1006.66
2022-07-27T02:57:59.007Z,1006.59
2022-07-27T02:58:59.002Z,1006.66
2022-07-27T02:59:58.984Z,1006.66
2022-07-27T03:00:58.974Z,1006.66
2022-07-27T03:01:58.966Z,1006.64
2022-07-27T03:02:58.944Z,1006.61
2022-07-27T03:03:58.980Z,1006.58
2022-07-27T03:04:58.926Z,1006.65
2022-07-27T03:05:58.922Z,1006.58
2022-07-27T03:06:58.906Z,1006.62
2022-07-27T03:07:58.906Z,1006.59
2022-07-27T03:08:58.886Z,1006.6
2022-07-27T03:09:58.878Z,1006.6
2022-07-27T03:10:58.860Z,1006.6
2022-07-27T03:11:58.855Z,1006.61
2022-07-27T03:12:58.853Z,1006.6
2022-07-27T03:13:58.839Z,1006.64
2022-07-27T03:14:58.826Z,1006.59
2022-07-27T03:15:58.807Z,1006.6
2022-07-27T03:16:58.814Z,1006.58
2022-07-27T03:17:58.782Z,1006.64
2022-07-27T03:18:58.783Z,1006.6
2022-07-27T03:19:58.760Z,1006.58
2022-07-27T03:20:58.754Z,1006.59
2022-07-27T03:21:58.743Z,1006.64
2022-07-27T03:22:58.733Z,1006.59
2022-07-27T03:23:58.728Z,1006.63
2022-07-27T03:24:58.712Z,1006.66
2022-07-27T03:25:58.699Z,1006.63
2022-07-27T03:26:58.703Z,1006.62
2022-07-27T03:27:58.674Z,1006.57
2022-07-27T03:28:58.683Z,1006.58
2022-07-27T03:29:58.651Z,1006.62
2022-07-27T03:30:58.646Z,1006.63
2022-07-27T03:31:58.633Z,1006.63
2022-07-27T03:32:58.628Z,1006.67
2022-07-27T03:33:58.614Z,1006.65
2022-07-27T03:34:58.600Z,1006.61
2022-07-27T03:35:58.589Z,1006.64
2022-07-27T03:36:58.589Z,1006.59
2022-07-27T03:37:58.593Z,1006.62
2022-07-27T03:38:58.555Z,1006.64
2022-07-27T03:39:58.550Z,1006.68
2022-07-27T03:40:58.533Z,1006.69
2022-07-27T03:41:58.539Z,1006.66
2022-07-27T03:42:58.525Z,1006.62
2022-07-27T03:43:58.500Z,1006.63
2022-07-27T03:44:58.491Z,1006.61
2022-07-27T03:45:58.497Z,1006.73
2022-07-27T03:46:58.468Z,1006.71
2022-07-27T03:47:58.464Z,1006.72
2022-07-27T03:48:58.445Z,1006.71
2022-07-27T03:49:58.447Z,1006.72
2022-07-27T03:50:58.427Z,1006.75
2022-07-27T03:51:58.410Z,1006.76
2022-07-27T03:52:58.399Z,1006.77
2022-07-27T03:53:58.391Z,1006.68
2022-07-27T03:54:58.402Z,1006.72
2022-07-27T03:55:58.369Z,1006.74
2022-07-27T03:56:58.362Z,1006.75
2022-07-27T03:57:58.361Z,1006.75
2022-07-27T03:58:58.338Z,1006.74
2022-07-27T03:59:58.329Z,1006.79
2022-07-27T04:00:58.318Z,1006.77
2022-07-27T04:01:58.303Z,1006.75
2022-07-27T04:02:58.292Z,1006.79
2022-07-27T04:03:58.284Z,1006.77
2022-07-27T04:04:58.293Z,1006.77
2022-07-27T04:05:58.272Z,1006.75
2022-07-27T04:06:58.251Z,1006.76
2022-07-27T04:07:58.247Z,1006.78
2022-07-27T04:08:58.225Z,1006.78
2022-07-27T04:09:58.218Z,1006.8
2022-07-27T04:10:58.210Z,1006.8
2022-07-27T04:11:58.215Z,1006.79
2022-07-27T04:12:58.184Z,1006.78
2022-07-27T04:13:58.181Z,1006.77
2022-07-27T04:14:58.160Z,1006.78
2022-07-27T04:15:58.153Z,1006.76
2022-07-27T04:16:58.157Z,1006.68
2022-07-27T04:17:58.150Z,1006.74
2022-07-27T04:18:58.122Z,1006.76
2022-07-27T04:19:58.109Z,1006.76
2022-07-27T04:20:58.106Z,1006.79
2022-07-27T04:21:58.090Z,1006.79
2022-07-27T04:22:58.084Z,1006.82
2022-07-27T04:23:58.075Z,1006.78
2022-07-27T04:24:58.065Z,1006.78
2022-07-27T04:25:58.051Z,1006.78
2022-07-27T04:26:58.040Z,1006.8
2022-07-27T04:27:58.038Z,1006.78
2022-07-27T04:28:58.026Z,1006.86
2022-07-27T04:29:58.003Z,1006.84
2022-07-27T04:30:57.989Z,1006.88
2022-07-27T04:31:57.988Z,1006.89
2022-07-27T04:32:57.982Z,1006.86
2022-07-27T04:33:57.961Z,1006.93
2022-07-27T04:34:58.899Z,1006.93
2022-07-27T04:35:57.935Z,1006.91
2022-07-27T04:36:57.926Z,1006.94
2022-07-27T04:37:57.917Z,1006.95
2022-07-27T04:38:57.906Z,1006.9
2022-07-27T04:39:57.896Z,1006.95
2022-07-27T04:40:57.911Z,1006.93
2022-07-27T04:41:57.870Z,1006.92
2022-07-27T04:42:57.869Z,1006.92
2022-07-27T04:43:57.852Z,1006.9
2022-07-27T04:44:57.894Z,1006.86
2022-07-27T04:45:57.834Z,1006.91
2022-07-27T04:46:57.822Z,1006.91
2022-07-27T04:47:57.814Z,1006.94
2022-07-27T04:48:57.792Z,1006.92
2022-07-27T04:49:57.783Z,1006.9
2022-07-27T04:50:57.780Z,1006.89
2022-07-27T04:51:57.761Z,1006.88
2022-07-27T04:52:57.766Z,1006.93
2022-07-27T04:53:57.771Z,1006.93
2022-07-27T04:54:57.729Z,1006.87
2022-07-27T04:55:57.738Z,1006.91
2022-07-27T04:56:57.716Z,1006.92
2022-07-27T04:57:57.747Z,1006.87
2022-07-27T04:58:57.686Z,1006.91
2022-07-27T04:59:57.679Z,1006.9
2022-07-27T05:00:57.669Z,1006.91
2022-07-27T05:01:57.661Z,1006.9
2022-07-27T05:02:57.646Z,1006.91
2022-07-27T05:03:57.641Z,1006.93
2022-07-27T05:04:57.625Z,1006.88
2022-07-27T05:05:57.632Z,1006.9
2022-07-27T05:06:57.614Z,1006.92
2022-07-27T05:07:57.642Z,1006.96
2022-07-27T05:08:57.579Z,1006.96
2022-07-27T05:09:57.579Z,1006.9
2022-07-27T05:10:57.582Z,1006.98
2022-07-27T05:11:57.554Z,1006.99
2022-07-27T05:12:57.543Z,1006.97
2022-07-27T05:13:57.555Z,1007
2022-07-27T05:14:57.534Z,1006.98
2022-07-27T05:15:57.527Z,1007
2022-07-27T05:16:57.514Z,1006.97
2022-07-27T05:17:57.486Z,1007.01
2022-07-27T05:18:57.482Z,1007.03
2022-07-27T05:19:57.466Z,1006.98
2022-07-27T05:20:57.454Z,1007.04
2022-07-27T05:21:57.468Z,1007.02
2022-07-27T05:22:57.432Z,1007.05
2022-07-27T05:23:57.420Z,1007.07
2022-07-27T05:24:57.415Z,1007.12
2022-07-27T05:25:57.401Z,1007.08
2022-07-27T05:26:57.390Z,1007.13
2022-07-27T05:27:57.382Z,1007.13
2022-07-27T05:28:57.377Z,1007.1
2022-07-27T05:29:57.379Z,1007.16
2022-07-27T05:30:57.352Z,1007.23
2022-07-27T05:31:57.339Z,1007.2
2022-07-27T05:32:57.334Z,1007.18
2022-07-27T05:33:57.321Z,1007.16
2022-07-27T05:34:57.322Z,1007.19
2022-07-27T05:35:57.287Z,1007.21
2022-07-27T05:36:57.299Z,1007.23
2022-07-27T05:37:57.282Z,1007.21
2022-07-27T05:38:57.262Z,1007.25
2022-07-27T05:39:57.254Z,1007.29
2022-07-27T05:40:57.231Z,1007.29
2022-07-27T05:41:57.227Z,1007.28
2022-07-27T05:42:57.235Z,1007.3
2022-07-27T05:43:57.205Z,1007.3
2022-07-27T05:44:57.200Z,1007.33
2022-07-27T05:45:57.180Z,1007.24
2022-07-27T05:46:57.187Z,1007.3
2022-07-27T05:47:57.163Z,1007.29
2022-07-27T05:48:57.147Z,1007.31
2022-07-27T05:49:57.137Z,1007.35
2022-07-27T05:50:57.131Z,1007.4
2022-07-27T05:51:57.118Z,1007.34
2022-07-27T05:52:57.106Z,1007.33
2022-07-27T05:53:57.092Z,1007.37
2022-07-27T05:54:57.123Z,1007.39
2022-07-27T05:55:57.071Z,1007.44
2022-07-27T05:56:57.065Z,1007.45
2022-07-27T05:57:57.056Z,1007.44
2022-07-27T05:58:57.043Z,1007.36
2022-07-27T05:59:57.031Z,1007.34
2022-07-27T06:00:57.018Z,1007.44
2022-07-27T06:01:57.011Z,1007.47
2022-07-27T06:02:56.999Z,1007.48
2022-07-27T06:03:57.009Z,1007.48
2022-07-27T06:04:57.015Z,1007.48
2022-07-27T06:05:56.962Z,1007.52
2022-07-27T06:06:56.949Z,1007.49
2022-07-27T06:07:56.942Z,1007.49
2022-07-27T06:08:56.945Z,1007.5
2022-07-27T06:09:56.925Z,1007.49
2022-07-27T06:10:56.915Z,1007.53
2022-07-27T06:11:56.893Z,1007.52
2022-07-27T06:12:56.888Z,1007.5
2022-07-27T06:13:56.881Z,1007.53
2022-07-27T06:14:56.877Z,1007.52
2022-07-27T06:15:56.862Z,1007.52
2022-07-27T06:16:56.848Z,1007.55
2022-07-27T06:17:56.830Z,1007.61
2022-07-27T06:18:56.847Z,1007.6
2022-07-27T06:19:56.821Z,1007.49
2022-07-27T06:20:56.814Z,1007.57
2022-07-27T06:21:56.806Z,1007.56
2022-07-27T06:22:56.774Z,1007.58
2022-07-27T06:23:56.762Z,1007.59
2022-07-27T06:24:56.776Z,1007.6
2022-07-27T06:25:56.749Z,1007.61
2022-07-27T06:26:56.740Z,1007.6
2022-07-27T06:27:56.725Z,1007.57
2022-07-27T06:28:56.721Z,1007.63
2022-07-27T06:29:56.707Z,1007.61
2022-07-27T06:30:56.687Z,1007.57
2022-07-27T06:31:56.685Z,1007.57
2022-07-27T06:32:56.678Z,1007.61
2022-07-27T06:33:56.670Z,1007.62
2022-07-27T06:34:56.652Z,1007.6
2022-07-27T06:35:56.633Z,1007.58
2022-07-27T06:36:56.654Z,1007.58
2022-07-27T06:37:56.625Z,1007.61
2022-07-27T06:38:56.614Z,1007.64
2022-07-27T06:39:56.601Z,1007.6
2022-07-27T06:40:56.585Z,1007.66
2022-07-27T06:41:56.570Z,1007.65
2022-07-27T06:42:56.561Z,1007.62
2022-07-27T06:43:56.578Z,1007.67
2022-07-27T06:44:56.539Z,1007.65
2022-07-27T06:45:56.540Z,1007.6
2022-07-27T06:46:56.537Z,1007.58
2022-07-27T06:47:56.517Z,1007.6
2022-07-27T06:48:56.511Z,1007.54
2022-07-27T06:49:56.493Z,1007.56
2022-07-27T06:50:56.481Z,1007.54
2022-07-27T06:51:56.467Z,1007.53
2022-07-27T06:52:56.461Z,1007.56
2022-07-27T06:53:56.450Z,1007.57
2022-07-27T06:54:56.446Z,1007.55
2022-07-27T06:55:56.431Z,1007.6
2022-07-27T06:56:56.417Z,1007.61
2022-07-27T06:57:56.422Z,1007.58
2022-07-27T06:58:56.392Z,1007.52
2022-07-27T06:59:56.384Z,1007.5
2022-07-27T07:00:56.410Z,1007.53
2022-07-27T07:01:56.370Z,1007.55
2022-07-27T07:02:56.354Z,1007.52
2022-07-27T07:03:56.348Z,1007.54
2022-07-27T07:04:56.335Z,1007.57
2022-07-27T07:05:56.321Z,1007.58
2022-07-27T07:06:56.314Z,1007.56
2022-07-27T07:07:56.332Z,1007.48
2022-07-27T07:08:56.303Z,1007.62
2022-07-27T07:09:56.286Z,1007.51
2022-07-27T07:10:56.263Z,1007.55
2022-07-27T07:11:56.259Z,1007.55
2022-07-27T07:12:56.259Z,1007.57
2022-07-27T07:13:56.243Z,1007.56
2022-07-27T07:14:56.230Z,1007.52
2022-07-27T07:15:56.215Z,1007.52
2022-07-27T07:16:56.209Z,1007.55
2022-07-27T07:17:56.195Z,1007.56
2022-07-27T07:18:56.184Z,1007.57
2022-07-27T07:19:56.195Z,1007.61
2022-07-27T07:20:56.183Z,1007.5
2022-07-27T07:21:56.179Z,1007.5
2022-07-27T07:22:56.166Z,1007.52
2022-07-27T07:23:56.135Z,1007.53
2022-07-27T07:24:56.168Z,1007.61
2022-07-27T07:25:56.109Z,1007.54
2022-07-27T07:26:56.100Z,1007.64
2022-07-27T07:27:56.085Z,1007.62
2022-07-27T07:28:56.093Z,1007.62
2022-07-27T07:29:56.069Z,1007.64
2022-07-27T07:30:56.052Z,1007.64
2022-07-27T07:31:56.046Z,1007.66
2022-07-27T07:32:56.041Z,1007.66
2022-07-27T07:33:56.028Z,1007.66
2022-07-27T07:34:56.028Z,1007.68
2022-07-27T07:35:56.010Z,1007.67
2022-07-27T07:36:56.002Z,1007.59
2022-07-27T07:37:55.989Z,1007.6
2022-07-27T07:38:55.969Z,1007.56
2022-07-27T07:39:56.000Z,1007.58
2022-07-27T07:40:55.957Z,1007.57
2022-07-27T07:41:55.939Z,1007.58
2022-07-27T07:42:55.934Z,1007.57
2022-07-27T07:43:55.947Z,1007.56
2022-07-27T07:44:55.914Z,1007.54
2022-07-27T07:45:56.815Z,1007.57
2022-07-27T07:46:55.912Z,1007.56
2022-07-27T07:47:55.904Z,1007.7
2022-07-27T07:48:55.868Z,1007.72
2022-07-27T07:49:55.876Z,1007.72
2022-07-27T07:50:55.851Z,1007.71
2022-07-27T07:51:55.831Z,1007.68
2022-07-27T07:52:55.849Z,1007.69
2022-07-27T07:53:55.817Z,1007.74
2022-07-27T07:54:55.810Z,1007.73
2022-07-27T07:55:55.795Z,1007.76
2022-07-27T07:56:55.896Z,1007.74
2022-07-27T07:57:55.780Z,1007.78
2022-07-27T07:58:55.759Z,1007.75
2022-07-27T07:59:55.756Z,1007.86
2022-07-27T08:00:55.747Z,1007.82
2022-07-27T08:01:55.729Z,1007.8
2022-07-27T08:02:56.318Z,1007.83
2022-07-27T08:03:55.742Z,1007.85
2022-07-27T08:04:55.698Z,1007.83
2022-07-27T08:05:55.691Z,1007.82
2022-07-27T08:06:55.682Z,1007.75
2022-07-27T08:07:55.705Z,1007.8
2022-07-27T08:08:55.677Z,1007.83
2022-07-27T08:09:55.646Z,1007.79
2022-07-27T08:10:55.643Z,1007.79
2022-07-27T08:11:55.627Z,1007.8
2022-07-27T08:12:55.624Z,1007.77
2022-07-27T08:13:55.661Z,1007.73
2022-07-27T08:14:55.595Z,1007.74
2022-07-27T08:15:55.580Z,1007.76
2022-07-27T08:16:55.581Z,1007.75
2022-07-27T08:17:55.560Z,1007.75
2022-07-27T08:18:55.569Z,1007.72
2022-07-27T08:19:55.545Z,1007.74
2022-07-27T08:20:56.315Z,1007.77
2022-07-27T08:21:55.520Z,1007.78
2022-07-27T08:22:55.503Z,1007.76
2022-07-27T08:23:55.494Z,1007.82
2022-07-27T08:24:55.485Z,1007.79
2022-07-27T08:25:55.476Z,1007.81
2022-07-27T08:26:55.466Z,1007.85
2022-07-27T08:27:55.452Z,1007.8
2022-07-27T08:28:55.469Z,1007.78
2022-07-27T08:29:55.430Z,1007.79
2022-07-27T08:30:55.420Z,1007.79
2022-07-27T08:31:55.407Z,1007.73
2022-07-27T08:32:55.397Z,1007.73
2022-07-27T08:33:55.403Z,1007.75
2022-07-27T08:34:55.380Z,1007.67
2022-07-27T08:35:55.409Z,1007.74
2022-07-27T08:36:55.351Z,1007.78
2022-07-27T08:37:55.346Z,1007.78
2022-07-27T08:38:55.367Z,1007.78
2022-07-27T08:40:55.311Z,1007.71
2022-07-27T08:41:55.337Z,1007.76
2022-07-27T08:42:55.291Z,1007.75
2022-07-27T08:43:55.293Z,1007.75
2022-07-27T08:44:55.279Z,1007.76
2022-07-27T08:45:55.257Z,1007.77
2022-07-27T08:46:55.256Z,1007.73
2022-07-27T08:47:55.246Z,1007.73
2022-07-27T08:48:55.228Z,1007.75
2022-07-27T08:49:55.262Z,1007.76
2022-07-27T08:50:55.236Z,1007.81
2022-07-27T08:51:55.211Z,1007.76
2022-07-27T08:52:55.186Z,1007.77
2022-07-27T08:53:55.180Z,1007.78
2022-07-27T08:54:55.189Z,1007.72
2022-07-27T08:55:55.158Z,1007.73
2022-07-27T08:56:55.152Z,1007.74
2022-07-27T08:57:55.142Z,1007.64
2022-07-27T08:58:55.121Z,1007.68
2022-07-27T08:59:55.136Z,1007.62
2022-07-27T09:00:55.107Z,1007.59
2022-07-27T09:01:55.107Z,1007.6
2022-07-27T09:02:55.079Z,1007.63
2022-07-27T09:03:55.078Z,1007.65
2022-07-27T09:04:55.100Z,1007.66
2022-07-27T09:05:55.058Z,1007.66
2022-07-27T09:06:55.050Z,1007.62
2022-07-27T09:07:55.103Z,1007.72
2022-07-27T09:08:55.022Z,1007.69
2022-07-27T09:09:55.015Z,1007.65
2022-07-27T09:10:55.000Z,1007.59
2022-07-27T09:11:55.003Z,1007.6
2022-07-27T09:12:54.985Z,1007.74
2022-07-27T09:13:54.970Z,1007.66
2022-07-27T09:14:54.975Z,1007.76
2022-07-27T09:15:54.953Z,1007.77
2022-07-27T09:16:54.934Z,1007.72
2022-07-27T09:17:54.958Z,1007.73
2022-07-27T09:18:54.917Z,1007.73
2022-07-27T09:19:54.909Z,1007.79
2022-07-27T09:20:54.933Z,1007.73
2022-07-27T09:21:54.893Z,1007.7
2022-07-27T09:22:54.908Z,1007.78
2022-07-27T09:23:54.862Z,1007.82
2022-07-27T09:24:54.880Z,1007.8
2022-07-27T09:25:54.851Z,1007.85
2022-07-27T09:26:54.842Z,1007.79
2022-07-27T09:27:54.824Z,1007.76
2022-07-27T09:28:54.862Z,1007.75
2022-07-27T09:29:54.805Z,1007.86
2022-07-27T09:30:54.891Z,1007.82
2022-07-27T09:31:54.786Z,1007.87
2022-07-27T09:32:54.777Z,1007.82
2022-07-27T09:33:54.761Z,1007.83
2022-07-27T09:34:54.755Z,1007.91
2022-07-27T09:35:54.751Z,1007.94
2022-07-27T09:36:54.737Z,1007.88
2022-07-27T09:37:54.721Z,1007.92
2022-07-27T09:38:54.703Z,1007.82
2022-07-27T09:39:54.693Z,1007.83
2022-07-27T09:40:54.689Z,1007.82
2022-07-27T09:41:54.700Z,1007.86
2022-07-27T09:42:54.667Z,1007.87
2022-07-27T09:43:54.650Z,1007.92
2022-07-27T09:44:54.654Z,1007.85
2022-07-27T09:45:54.633Z,1007.82
2022-07-27T09:46:54.771Z,1007.84
2022-07-27T09:47:54.622Z,1007.85
2022-07-27T09:48:54.603Z,1007.86
2022-07-27T09:49:54.596Z,1007.84
2022-07-27T09:50:54.574Z,1007.91
2022-07-27T09:51:54.571Z,1007.81
2022-07-27T09:52:54.569Z,1007.87
2022-07-27T09:53:54.553Z,1007.87
2022-07-27T09:54:54.705Z,1007.88
2022-07-27T09:55:54.548Z,1007.77
2022-07-27T09:56:54.508Z,1007.71
2022-07-27T09:57:54.501Z,1007.74
2022-07-27T09:58:54.495Z,1007.71
2022-07-27T09:59:54.478Z,1007.76
2022-07-27T10:00:54.483Z,1007.81
2022-07-27T10:01:54.456Z,1007.83
2022-07-27T10:02:54.447Z,1007.75
2022-07-27T10:03:54.440Z,1007.77
2022-07-27T10:04:54.441Z,1007.69
2022-07-27T10:05:54.431Z,1007.83
2022-07-27T10:06:54.410Z,1007.75
2022-07-27T10:07:54.410Z,1007.78
2022-07-27T10:08:54.392Z,1007.7
2022-07-27T10:09:54.377Z,1007.72
2022-07-27T10:10:54.371Z,1007.74
2022-07-27T10:11:54.352Z,1007.75
2022-07-27T10:12:54.351Z,1007.74
2022-07-27T10:13:54.332Z,1007.72
2022-07-27T10:14:54.323Z,1007.73
2022-07-27T10:15:54.319Z,1007.74
2022-07-27T10:16:54.314Z,1007.71
2022-07-27T10:17:54.287Z,1007.71
2022-07-27T10:18:54.283Z,1007.72
2022-07-27T10:19:54.268Z,1007.68
2022-07-27T10:20:54.261Z,1007.64
2022-07-27T10:21:54.308Z,1007.65
2022-07-27T10:22:54.277Z,1007.6
2022-07-27T10:23:54.232Z,1007.62
2022-07-27T10:24:54.236Z,1007.59
2022-07-27T10:25:54.208Z,1007.55
2022-07-27T10:26:54.204Z,1007.62
2022-07-27T10:27:54.183Z,1007.65
2022-07-27T10:28:54.198Z,1007.64
2022-07-27T10:29:54.184Z,1007.73
2022-07-27T10:30:54.202Z,1007.72
2022-07-27T10:31:54.152Z,1007.67
2022-07-27T10:32:54.141Z,1007.69
2022-07-27T10:33:54.118Z,1007.65
2022-07-27T10:34:54.125Z,1007.64
2022-07-27T10:35:54.111Z,1007.71
2022-07-27T10:36:54.095Z,1007.7
2022-07-27T10:37:54.090Z,1007.7
2022-07-27T10:38:54.107Z,1007.73
2022-07-27T10:39:54.058Z,1007.66
2022-07-27T10:40:54.050Z,1007.72
2022-07-27T10:41:54.035Z,1007.79
2022-07-27T10:42:54.037Z,1007.78
2022-07-27T10:43:54.015Z,1007.77
2022-07-27T10:44:54.010Z,1007.7
2022-07-27T10:45:54.032Z,1007.64
2022-07-27T10:46:53.992Z,1007.67
2022-07-27T10:47:53.980Z,1007.64
2022-07-27T10:48:53.966Z,1007.62
2022-07-27T10:49:53.957Z,1007.74
2022-07-27T10:50:53.947Z,1007.65
2022-07-27T10:51:53.940Z,1007.67
2022-07-27T10:52:53.926Z,1007.65
2022-07-27T10:53:53.920Z,1007.68
2022-07-27T10:54:53.914Z,1007.71
2022-07-27T10:55:53.903Z,1007.72
2022-07-27T10:56:53.906Z,1007.71
2022-07-27T10:57:53.896Z,1007.7
2022-07-27T10:58:53.869Z,1007.75
2022-07-27T10:59:53.859Z,1007.74
2022-07-27T11:00:53.845Z,1007.7
2022-07-27T11:01:53.849Z,1007.75
2022-07-27T11:02:53.856Z,1007.71
2022-07-27T11:03:53.814Z,1007.78
2022-07-27T11:04:53.801Z,1007.71
2022-07-27T11:05:53.780Z,1007.76
2022-07-27T11:06:53.798Z,1007.73
2022-07-27T11:07:53.774Z,1007.78
2022-07-27T11:08:53.751Z,1007.74
2022-07-27T11:09:53.764Z,1007.75
2022-07-27T11:10:53.726Z,1007.76
2022-07-27T11:11:53.720Z,1007.77
2022-07-27T11:12:53.723Z,1007.85
2022-07-27T11:13:53.699Z,1007.83
2022-07-27T11:14:53.694Z,1007.76
2022-07-27T11:15:53.679Z,1007.82
2022-07-27T11:16:53.686Z,1007.82
2022-07-27T11:17:53.663Z,1007.76
2022-07-27T11:18:53.672Z,1007.7
2022-07-27T11:19:53.631Z,1007.75
2022-07-27T11:20:53.623Z,1007.81
2022-07-27T11:21:53.618Z,1007.71
2022-07-27T11:23:53.591Z,1007.73
2022-07-27T11:24:53.581Z,1007.6
2022-07-27T11:25:53.575Z,1007.66
2022-07-27T11:26:53.569Z,1007.55
2022-07-27T11:27:53.551Z,1007.55
2022-07-27T11:28:53.541Z,1007.54
2022-07-27T11:29:53.527Z,1007.59
2022-07-27T11:30:53.518Z,1007.6
2022-07-27T11:31:53.551Z,1007.55
2022-07-27T11:32:53.566Z,1007.59
2022-07-27T11:33:53.535Z,1007.58
2022-07-27T11:34:53.508Z,1007.58
2022-07-27T11:35:53.471Z,1007.62
2022-07-27T11:36:53.468Z,1007.64
2022-07-27T11:37:53.451Z,1007.68
2022-07-27T11:38:53.461Z,1007.66
2022-07-27T11:39:53.425Z,1007.59
2022-07-27T11:40:53.411Z,1007.63
2022-07-27T11:41:53.407Z,1007.6
2022-07-27T11:42:53.398Z,1007.61
2022-07-27T11:43:53.389Z,1007.61
2022-07-27T11:44:53.374Z,1007.55
2022-07-27T11:45:53.359Z,1007.55
2022-07-27T11:46:53.355Z,1007.62
2022-07-27T11:47:53.369Z,1007.62
2022-07-27T11:48:53.329Z,1007.65
2022-07-27T11:49:53.319Z,1007.64
2022-07-27T11:50:53.333Z,1007.67
2022-07-27T11:51:53.312Z,1007.58
2022-07-27T11:52:53.286Z,1007.72
2022-07-27T11:53:53.276Z,1007.62
2022-07-27T11:54:53.264Z,1007.59
2022-07-27T11:55:53.281Z,1007.69
2022-07-27T11:56:53.249Z,1007.6
2022-07-27T11:57:53.235Z,1007.58
2022-07-27T11:58:53.223Z,1007.6
2022-07-27T11:59:53.209Z,1007.58
2022-07-27T12:00:53.203Z,1007.56
2022-07-27T12:01:53.191Z,1007.56
2022-07-27T12:02:53.185Z,1007.54
2022-07-27T12:03:53.192Z,1007.55
2022-07-27T12:04:53.201Z,1007.54
2022-07-27T12:05:53.152Z,1007.51
2022-07-27T12:06:53.146Z,1007.53
2022-07-27T12:07:53.160Z,1007.56
2022-07-27T12:08:53.118Z,1007.47
2022-07-27T12:09:53.114Z,1007.49